sensor_id;sensor_type;location;lat;lon;timestamp;P1;durP1;ratioP1;P2;durP2;ratioP2
44694;SDS011;32845;59.422;17.930;2023-05-07T00:03:37;3.40;;;1.60;;
44694;SDS011;32845;59.422;17.930;2023-05-07T00:08:07;3.30;;;1.40;;
44694;SDS011;32845;59.422;17.930;2023-05-07T00:12:38;6.18;;;1.55;;
44694;SDS011;32845;59.422;17.930;2023-05-07T00:17:11;5.53;;;1.40;;
44694;SDS011;32845;59.422;17.930;2023-05-07T00:21:42;3.80;;;1.40;;
44694;SDS011;32845;59.422;17.930;2023-05-07T00:26:12;8.25;;;1.40;;
44694;SDS011;32845;59.422;17.930;2023-05-07T00:30:43;1.45;;;1.20;;
44694;SDS011;32845;59.422;17.930;2023-05-07T00:35:14;8.43;;;1.30;;
44694;SDS011;32845;59.422;17.930;2023-05-07T00:39:44;2.97;;;1.33;;
44694;SDS011;32845;59.422;17.930;2023-05-07T00:44:15;5.00;;;1.45;;
44694;SDS011;32845;59.422;17.930;2023-05-07T00:48:45;8.30;;;1.45;;
44694;SDS011;32845;59.422;17.930;2023-05-07T00:53:17;3.88;;;1.45;;
44694;SDS011;32845;59.422;17.930;2023-05-07T00:57:47;5.32;;;1.10;;
44694;SDS011;32845;59.422;17.930;2023-05-07T01:02:19;3.53;;;1.48;;
44694;SDS011;32845;59.422;17.930;2023-05-07T01:06:50;2.50;;;1.30;;
44694;SDS011;32845;59.422;17.930;2023-05-07T01:11:21;6.22;;;1.20;;
44694;SDS011;32845;59.422;17.930;2023-05-07T01:15:53;7.85;;;1.65;;
44694;SDS011;32845;59.422;17.930;2023-05-07T01:20:24;9.00;;;1.40;;
44694;SDS011;32845;59.422;17.930;2023-05-07T01:24:55;2.60;;;1.40;;
44694;SDS011;32845;59.422;17.930;2023-05-07T01:29:26;2.58;;;1.33;;
44694;SDS011;32845;59.422;17.930;2023-05-07T01:33:56;4.97;;;1.20;;
44694;SDS011;32845;59.422;17.930;2023-05-07T01:38:29;6.72;;;1.70;;
44694;SDS011;32845;59.422;17.930;2023-05-07T01:43:01;8.30;;;1.73;;
44694;SDS011;32845;59.422;17.930;2023-05-07T01:47:32;5.93;;;1.98;;
44694;SDS011;32845;59.422;17.930;2023-05-07T01:52:04;4.85;;;1.55;;
44694;SDS011;32845;59.422;17.930;2023-05-07T01:56:35;6.07;;;1.95;;
44694;SDS011;32845;59.422;17.930;2023-05-07T02:01:06;7.72;;;1.77;;
44694;SDS011;32845;59.422;17.930;2023-05-07T02:05:36;4.20;;;1.55;;
44694;SDS011;32845;59.422;17.930;2023-05-07T02:10:07;2.42;;;1.40;;
44694;SDS011;32845;59.422;17.930;2023-05-07T02:14:38;3.00;;;1.60;;
44694;SDS011;32845;59.422;17.930;2023-05-07T02:19:09;9.60;;;2.53;;
44694;SDS011;32845;59.422;17.930;2023-05-07T02:23:39;3.72;;;1.75;;
44694;SDS011;32845;59.422;17.930;2023-05-07T02:28:10;3.67;;;1.80;;
44694;SDS011;32845;59.422;17.930;2023-05-07T02:32:40;3.88;;;1.70;;
44694;SDS011;32845;59.422;17.930;2023-05-07T02:37:11;3.85;;;1.48;;
44694;SDS011;32845;59.422;17.930;2023-05-07T02:41:42;6.78;;;1.70;;
44694;SDS011;32845;59.422;17.930;2023-05-07T02:46:12;2.05;;;1.33;;
44694;SDS011;32845;59.422;17.930;2023-05-07T02:50:43;6.68;;;1.45;;
44694;SDS011;32845;59.422;17.930;2023-05-07T02:55:13;8.13;;;2.10;;
44694;SDS011;32845;59.422;17.930;2023-05-07T02:59:44;3.65;;;1.70;;
44694;SDS011;32845;59.422;17.930;2023-05-07T03:04:15;5.97;;;1.70;;
44694;SDS011;32845;59.422;17.930;2023-05-07T03:08:45;5.35;;;1.80;;
44694;SDS011;32845;59.422;17.930;2023-05-07T03:13:16;3.30;;;2.00;;
44694;SDS011;32845;59.422;17.930;2023-05-07T03:17:47;4.47;;;1.77;;
44694;SDS011;32845;59.422;17.930;2023-05-07T03:22:18;2.45;;;1.80;;
44694;SDS011;32845;59.422;17.930;2023-05-07T03:26:48;6.40;;;2.00;;
44694;SDS011;32845;59.422;17.930;2023-05-07T03:31:19;3.08;;;1.77;;
44694;SDS011;32845;59.422;17.930;2023-05-07T03:35:50;4.18;;;1.58;;
44694;SDS011;32845;59.422;17.930;2023-05-07T03:40:20;8.65;;;1.80;;
44694;SDS011;32845;59.422;17.930;2023-05-07T03:44:51;6.30;;;2.20;;
44694;SDS011;32845;59.422;17.930;2023-05-07T03:49:21;17.42;;;2.10;;
44694;SDS011;32845;59.422;17.930;2023-05-07T03:53:52;7.90;;;2.00;;
44694;SDS011;32845;59.422;17.930;2023-05-07T03:58:23;9.05;;;1.67;;
44694;SDS011;32845;59.422;17.930;2023-05-07T04:02:53;11.07;;;2.28;;
44694;SDS011;32845;59.422;17.930;2023-05-07T04:07:24;4.07;;;1.95;;
44694;SDS011;32845;59.422;17.930;2023-05-07T04:11:54;4.97;;;2.50;;
44694;SDS011;32845;59.422;17.930;2023-05-07T04:16:25;4.60;;;2.10;;
44694;SDS011;32845;59.422;17.930;2023-05-07T04:20:56;6.43;;;1.92;;
44694;SDS011;32845;59.422;17.930;2023-05-07T04:25:26;4.15;;;1.85;;
44694;SDS011;32845;59.422;17.930;2023-05-07T04:29:57;5.93;;;1.92;;
44694;SDS011;32845;59.422;17.930;2023-05-07T04:34:28;3.67;;;1.98;;
44694;SDS011;32845;59.422;17.930;2023-05-07T04:38:58;4.43;;;1.70;;
44694;SDS011;32845;59.422;17.930;2023-05-07T04:43:29;5.32;;;2.00;;
44694;SDS011;32845;59.422;17.930;2023-05-07T04:48:00;2.28;;;1.63;;
44694;SDS011;32845;59.422;17.930;2023-05-07T04:52:36;3.80;;;1.73;;
44694;SDS011;32845;59.422;17.930;2023-05-07T04:57:06;5.70;;;2.47;;
44694;SDS011;32845;59.422;17.930;2023-05-07T05:01:37;6.80;;;1.50;;
44694;SDS011;32845;59.422;17.930;2023-05-07T05:06:07;2.33;;;1.35;;
44694;SDS011;32845;59.422;17.930;2023-05-07T05:10:38;2.72;;;1.70;;
44694;SDS011;32845;59.422;17.930;2023-05-07T05:15:11;3.42;;;1.55;;
44694;SDS011;32845;59.422;17.930;2023-05-07T05:19:48;2.45;;;1.55;;
44694;SDS011;32845;59.422;17.930;2023-05-07T05:24:18;5.60;;;1.70;;
44694;SDS011;32845;59.422;17.930;2023-05-07T05:28:49;5.45;;;1.50;;
44694;SDS011;32845;59.422;17.930;2023-05-07T05:33:20;2.67;;;1.27;;
44694;SDS011;32845;59.422;17.930;2023-05-07T05:37:51;2.83;;;1.15;;
44694;SDS011;32845;59.422;17.930;2023-05-07T05:42:21;2.40;;;1.00;;
44694;SDS011;32845;59.422;17.930;2023-05-07T05:46:52;1.70;;;1.02;;
44694;SDS011;32845;59.422;17.930;2023-05-07T05:51:25;2.50;;;1.30;;
44694;SDS011;32845;59.422;17.930;2023-05-07T05:55:56;5.15;;;1.40;;
44694;SDS011;32845;59.422;17.930;2023-05-07T06:00:37;2.17;;;1.20;;
44694;SDS011;32845;59.422;17.930;2023-05-07T06:05:08;3.38;;;0.90;;
44694;SDS011;32845;59.422;17.930;2023-05-07T06:09:39;1.88;;;1.20;;
44694;SDS011;32845;59.422;17.930;2023-05-07T06:14:09;4.90;;;1.30;;
44694;SDS011;32845;59.422;17.930;2023-05-07T06:18:40;10.63;;;1.00;;
44694;SDS011;32845;59.422;17.930;2023-05-07T06:23:11;3.78;;;1.13;;
44694;SDS011;32845;59.422;17.930;2023-05-07T06:27:41;2.03;;;1.30;;
44694;SDS011;32845;59.422;17.930;2023-05-07T06:32:12;2.85;;;0.68;;
44694;SDS011;32845;59.422;17.930;2023-05-07T06:36:44;3.47;;;0.90;;
44694;SDS011;32845;59.422;17.930;2023-05-07T06:41:14;4.28;;;0.90;;
44694;SDS011;32845;59.422;17.930;2023-05-07T06:45:45;1.38;;;0.70;;
44694;SDS011;32845;59.422;17.930;2023-05-07T06:50:16;5.72;;;0.77;;
44694;SDS011;32845;59.422;17.930;2023-05-07T06:54:46;2.40;;;0.80;;
44694;SDS011;32845;59.422;17.930;2023-05-07T06:59:17;2.22;;;1.45;;
44694;SDS011;32845;59.422;17.930;2023-05-07T07:03:49;4.03;;;0.98;;
44694;SDS011;32845;59.422;17.930;2023-05-07T07:08:21;2.35;;;1.17;;
44694;SDS011;32845;59.422;17.930;2023-05-07T07:12:52;2.40;;;0.85;;
44694;SDS011;32845;59.422;17.930;2023-05-07T07:17:23;1.77;;;0.85;;
44694;SDS011;32845;59.422;17.930;2023-05-07T07:21:54;2.28;;;0.70;;
44694;SDS011;32845;59.422;17.930;2023-05-07T07:26:25;2.38;;;0.70;;
44694;SDS011;32845;59.422;17.930;2023-05-07T07:30:55;9.18;;;0.82;;
44694;SDS011;32845;59.422;17.930;2023-05-07T07:35:26;4.78;;;0.93;;
44694;SDS011;32845;59.422;17.930;2023-05-07T07:39:56;2.17;;;0.88;;
44694;SDS011;32845;59.422;17.930;2023-05-07T07:44:27;3.20;;;0.60;;
44694;SDS011;32845;59.422;17.930;2023-05-07T07:48:58;1.15;;;0.70;;
44694;SDS011;32845;59.422;17.930;2023-05-07T07:53:29;3.47;;;0.75;;
44694;SDS011;32845;59.422;17.930;2023-05-07T07:58:00;0.98;;;0.60;;
44694;SDS011;32845;59.422;17.930;2023-05-07T08:02:31;1.92;;;0.68;;
44694;SDS011;32845;59.422;17.930;2023-05-07T08:07:01;5.97;;;0.90;;
44694;SDS011;32845;59.422;17.930;2023-05-07T08:11:32;1.15;;;0.65;;
44694;SDS011;32845;59.422;17.930;2023-05-07T08:16:03;2.70;;;0.88;;
44694;SDS011;32845;59.422;17.930;2023-05-07T08:20:34;0.98;;;0.73;;
44694;SDS011;32845;59.422;17.930;2023-05-07T08:25:09;1.77;;;0.70;;
44694;SDS011;32845;59.422;17.930;2023-05-07T08:29:40;2.63;;;1.00;;
44694;SDS011;32845;59.422;17.930;2023-05-07T08:34:10;2.38;;;0.98;;
44694;SDS011;32845;59.422;17.930;2023-05-07T08:38:41;2.17;;;0.88;;
44694;SDS011;32845;59.422;17.930;2023-05-07T08:43:14;2.70;;;0.70;;
44694;SDS011;32845;59.422;17.930;2023-05-07T08:47:46;3.28;;;0.90;;
44694;SDS011;32845;59.422;17.930;2023-05-07T08:52:20;0.80;;;0.60;;
44694;SDS011;32845;59.422;17.930;2023-05-07T08:56:50;10.32;;;0.93;;
44694;SDS011;32845;59.422;17.930;2023-05-07T09:01:21;6.38;;;1.27;;
44694;SDS011;32845;59.422;17.930;2023-05-07T09:05:52;2.22;;;0.90;;
44694;SDS011;32845;59.422;17.930;2023-05-07T09:10:22;5.30;;;0.68;;
44694;SDS011;32845;59.422;17.930;2023-05-07T09:14:53;2.90;;;0.80;;
44694;SDS011;32845;59.422;17.930;2023-05-07T09:19:24;6.95;;;0.80;;
44694;SDS011;32845;59.422;17.930;2023-05-07T09:23:55;2.45;;;0.80;;
44694;SDS011;32845;59.422;17.930;2023-05-07T09:28:26;2.47;;;0.55;;
44694;SDS011;32845;59.422;17.930;2023-05-07T09:33:00;6.93;;;1.58;;
44694;SDS011;32845;59.422;17.930;2023-05-07T09:37:32;4.43;;;1.00;;
44694;SDS011;32845;59.422;17.930;2023-05-07T09:42:03;2.35;;;0.80;;
44694;SDS011;32845;59.422;17.930;2023-05-07T09:46:34;4.03;;;0.85;;
44694;SDS011;32845;59.422;17.930;2023-05-07T09:56:03;4.85;;;0.80;;
44694;SDS011;32845;59.422;17.930;2023-05-07T10:00:34;4.82;;;1.15;;
44694;SDS011;32845;59.422;17.930;2023-05-07T10:05:05;2.15;;;0.63;;
44694;SDS011;32845;59.422;17.930;2023-05-07T10:09:36;6.85;;;1.08;;
44694;SDS011;32845;59.422;17.930;2023-05-07T10:14:09;1.73;;;0.80;;
44694;SDS011;32845;59.422;17.930;2023-05-07T10:18:40;4.25;;;1.00;;
44694;SDS011;32845;59.422;17.930;2023-05-07T10:23:13;9.18;;;1.00;;
44694;SDS011;32845;59.422;17.930;2023-05-07T10:27:49;1.02;;;0.70;;
44694;SDS011;32845;59.422;17.930;2023-05-07T10:32:29;2.60;;;1.00;;
44694;SDS011;32845;59.422;17.930;2023-05-07T10:41:32;3.53;;;0.90;;
44694;SDS011;32845;59.422;17.930;2023-05-07T10:46:14;2.08;;;0.82;;
44694;SDS011;32845;59.422;17.930;2023-05-07T10:50:48;3.92;;;1.00;;
44694;SDS011;32845;59.422;17.930;2023-05-07T10:55:19;2.67;;;1.00;;
44694;SDS011;32845;59.422;17.930;2023-05-07T10:59:56;4.13;;;1.17;;
44694;SDS011;32845;59.422;17.930;2023-05-07T11:04:27;2.45;;;0.88;;
44694;SDS011;32845;59.422;17.930;2023-05-07T11:08:58;1.90;;;0.80;;
44694;SDS011;32845;59.422;17.930;2023-05-07T11:13:41;3.45;;;1.00;;
44694;SDS011;32845;59.422;17.930;2023-05-07T11:18:15;3.60;;;1.10;;
44694;SDS011;32845;59.422;17.930;2023-05-07T11:22:47;1.42;;;0.95;;
44694;SDS011;32845;59.422;17.930;2023-05-07T11:27:22;2.70;;;1.15;;
44694;SDS011;32845;59.422;17.930;2023-05-07T11:31:54;2.08;;;1.20;;
44694;SDS011;32845;59.422;17.930;2023-05-07T11:36:25;8.73;;;0.98;;
44694;SDS011;32845;59.422;17.930;2023-05-07T11:41:00;4.75;;;1.05;;
44694;SDS011;32845;59.422;17.930;2023-05-07T11:45:32;3.75;;;0.77;;
44694;SDS011;32845;59.422;17.930;2023-05-07T11:50:05;5.88;;;1.02;;
44694;SDS011;32845;59.422;17.930;2023-05-07T11:54:37;7.57;;;1.42;;
44694;SDS011;32845;59.422;17.930;2023-05-07T11:59:08;6.68;;;1.15;;
44694;SDS011;32845;59.422;17.930;2023-05-07T12:03:42;1.40;;;0.85;;
44694;SDS011;32845;59.422;17.930;2023-05-07T12:08:18;4.38;;;0.95;;
44694;SDS011;32845;59.422;17.930;2023-05-07T12:12:49;3.70;;;1.00;;
44694;SDS011;32845;59.422;17.930;2023-05-07T12:17:20;3.70;;;0.93;;
44694;SDS011;32845;59.422;17.930;2023-05-07T12:21:51;6.40;;;0.75;;
44694;SDS011;32845;59.422;17.930;2023-05-07T12:26:22;4.93;;;1.05;;
44694;SDS011;32845;59.422;17.930;2023-05-07T12:30:52;2.53;;;0.98;;
44694;SDS011;32845;59.422;17.930;2023-05-07T12:35:30;9.20;;;0.90;;
44694;SDS011;32845;59.422;17.930;2023-05-07T12:40:09;2.28;;;0.70;;
44694;SDS011;32845;59.422;17.930;2023-05-07T12:44:40;4.28;;;0.63;;
44694;SDS011;32845;59.422;17.930;2023-05-07T12:49:15;4.65;;;0.70;;
44694;SDS011;32845;59.422;17.930;2023-05-07T12:53:46;1.30;;;0.70;;
44694;SDS011;32845;59.422;17.930;2023-05-07T12:58:17;3.13;;;0.80;;
44694;SDS011;32845;59.422;17.930;2023-05-07T13:02:50;1.38;;;0.80;;
44694;SDS011;32845;59.422;17.930;2023-05-07T13:07:20;2.15;;;0.90;;
44694;SDS011;32845;59.422;17.930;2023-05-07T13:11:55;3.08;;;0.70;;
44694;SDS011;32845;59.422;17.930;2023-05-07T13:16:25;1.98;;;1.00;;
44694;SDS011;32845;59.422;17.930;2023-05-07T13:20:56;1.13;;;0.77;;
44694;SDS011;32845;59.422;17.930;2023-05-07T13:25:27;1.85;;;0.80;;
44694;SDS011;32845;59.422;17.930;2023-05-07T13:29:58;4.88;;;1.02;;
44694;SDS011;32845;59.422;17.930;2023-05-07T13:34:28;2.30;;;0.90;;
44694;SDS011;32845;59.422;17.930;2023-05-07T13:38:59;4.57;;;0.90;;
44694;SDS011;32845;59.422;17.930;2023-05-07T13:43:30;3.83;;;1.10;;
44694;SDS011;32845;59.422;17.930;2023-05-07T13:48:03;2.05;;;1.00;;
44694;SDS011;32845;59.422;17.930;2023-05-07T13:52:34;4.75;;;1.00;;
44694;SDS011;32845;59.422;17.930;2023-05-07T13:57:04;4.30;;;0.88;;
44694;SDS011;32845;59.422;17.930;2023-05-07T14:01:35;2.17;;;0.95;;
44694;SDS011;32845;59.422;17.930;2023-05-07T14:06:06;5.13;;;1.23;;
44694;SDS011;32845;59.422;17.930;2023-05-07T14:10:36;3.00;;;0.82;;
44694;SDS011;32845;59.422;17.930;2023-05-07T14:15:07;3.10;;;0.82;;
44694;SDS011;32845;59.422;17.930;2023-05-07T14:19:38;5.28;;;1.08;;
44694;SDS011;32845;59.422;17.930;2023-05-07T14:24:09;2.60;;;1.08;;
44694;SDS011;32845;59.422;17.930;2023-05-07T14:28:40;3.15;;;1.00;;
44694;SDS011;32845;59.422;17.930;2023-05-07T14:33:16;8.52;;;1.33;;
44694;SDS011;32845;59.422;17.930;2023-05-07T14:37:47;2.17;;;1.00;;
44694;SDS011;32845;59.422;17.930;2023-05-07T14:42:18;6.18;;;0.82;;
44694;SDS011;32845;59.422;17.930;2023-05-07T14:46:48;2.10;;;0.77;;
44694;SDS011;32845;59.422;17.930;2023-05-07T14:51:19;7.20;;;0.95;;
44694;SDS011;32845;59.422;17.930;2023-05-07T14:55:50;5.22;;;0.80;;
44694;SDS011;32845;59.422;17.930;2023-05-07T15:00:21;1.98;;;0.80;;
44694;SDS011;32845;59.422;17.930;2023-05-07T15:04:52;6.43;;;0.90;;
44694;SDS011;32845;59.422;17.930;2023-05-07T15:09:28;2.95;;;1.00;;
44694;SDS011;32845;59.422;17.930;2023-05-07T15:14:01;6.03;;;1.10;;
44694;SDS011;32845;59.422;17.930;2023-05-07T15:18:32;2.28;;;0.73;;
44694;SDS011;32845;59.422;17.930;2023-05-07T15:23:03;9.55;;;1.15;;
44694;SDS011;32845;59.422;17.930;2023-05-07T15:27:40;2.00;;;0.68;;
44694;SDS011;32845;59.422;17.930;2023-05-07T15:32:10;3.17;;;0.80;;
44694;SDS011;32845;59.422;17.930;2023-05-07T15:36:41;8.20;;;0.80;;
44694;SDS011;32845;59.422;17.930;2023-05-07T15:41:12;5.72;;;1.02;;
44694;SDS011;32845;59.422;17.930;2023-05-07T15:45:43;3.50;;;0.90;;
44694;SDS011;32845;59.422;17.930;2023-05-07T15:50:13;1.17;;;0.80;;
44694;SDS011;32845;59.422;17.930;2023-05-07T15:54:44;3.28;;;0.70;;
44694;SDS011;32845;59.422;17.930;2023-05-07T15:59:15;1.60;;;0.70;;
44694;SDS011;32845;59.422;17.930;2023-05-07T16:03:46;5.38;;;0.70;;
44694;SDS011;32845;59.422;17.930;2023-05-07T16:08:17;4.70;;;0.80;;
44694;SDS011;32845;59.422;17.930;2023-05-07T16:12:47;7.40;;;1.00;;
44694;SDS011;32845;59.422;17.930;2023-05-07T16:17:18;2.00;;;0.80;;
44694;SDS011;32845;59.422;17.930;2023-05-07T16:21:49;7.72;;;1.42;;
44694;SDS011;32845;59.422;17.930;2023-05-07T16:26:19;4.68;;;1.15;;
44694;SDS011;32845;59.422;17.930;2023-05-07T16:30:50;2.88;;;1.00;;
44694;SDS011;32845;59.422;17.930;2023-05-07T16:35:20;1.85;;;0.80;;
44694;SDS011;32845;59.422;17.930;2023-05-07T16:39:51;5.13;;;1.50;;
44694;SDS011;32845;59.422;17.930;2023-05-07T16:44:22;3.10;;;1.05;;
44694;SDS011;32845;59.422;17.930;2023-05-07T16:48:52;3.22;;;0.93;;
44694;SDS011;32845;59.422;17.930;2023-05-07T16:53:23;1.90;;;0.90;;
44694;SDS011;32845;59.422;17.930;2023-05-07T16:57:53;2.20;;;0.70;;
44694;SDS011;32845;59.422;17.930;2023-05-07T17:02:24;5.05;;;0.80;;
44694;SDS011;32845;59.422;17.930;2023-05-07T17:06:55;4.55;;;0.85;;
44694;SDS011;32845;59.422;17.930;2023-05-07T17:11:26;5.38;;;1.02;;
44694;SDS011;32845;59.422;17.930;2023-05-07T17:16:00;2.22;;;1.05;;
44694;SDS011;32845;59.422;17.930;2023-05-07T17:20:30;3.30;;;1.40;;
44694;SDS011;32845;59.422;17.930;2023-05-07T17:25:01;2.15;;;1.20;;
44694;SDS011;32845;59.422;17.930;2023-05-07T17:29:33;2.22;;;0.85;;
44694;SDS011;32845;59.422;17.930;2023-05-07T17:34:03;3.53;;;1.17;;
44694;SDS011;32845;59.422;17.930;2023-05-07T17:38:34;13.73;;;1.10;;
44694;SDS011;32845;59.422;17.930;2023-05-07T17:43:05;3.00;;;1.00;;
44694;SDS011;32845;59.422;17.930;2023-05-07T17:47:35;5.57;;;1.00;;
44694;SDS011;32845;59.422;17.930;2023-05-07T17:52:06;1.98;;;0.82;;
44694;SDS011;32845;59.422;17.930;2023-05-07T17:56:38;6.07;;;1.42;;
44694;SDS011;32845;59.422;17.930;2023-05-07T18:01:09;5.70;;;1.20;;
44694;SDS011;32845;59.422;17.930;2023-05-07T18:05:40;9.48;;;1.45;;
44694;SDS011;32845;59.422;17.930;2023-05-07T18:10:10;4.47;;;1.35;;
44694;SDS011;32845;59.422;17.930;2023-05-07T18:14:41;5.10;;;1.48;;
44694;SDS011;32845;59.422;17.930;2023-05-07T18:19:12;6.38;;;1.63;;
44694;SDS011;32845;59.422;17.930;2023-05-07T18:23:46;3.55;;;1.23;;
44694;SDS011;32845;59.422;17.930;2023-05-07T18:28:17;6.60;;;1.50;;
44694;SDS011;32845;59.422;17.930;2023-05-07T18:32:47;4.32;;;1.20;;
44694;SDS011;32845;59.422;17.930;2023-05-07T18:37:18;2.10;;;1.05;;
44694;SDS011;32845;59.422;17.930;2023-05-07T18:41:49;1.58;;;1.20;;
44694;SDS011;32845;59.422;17.930;2023-05-07T18:46:19;6.95;;;1.13;;
44694;SDS011;32845;59.422;17.930;2023-05-07T18:50:50;3.45;;;1.48;;
44694;SDS011;32845;59.422;17.930;2023-05-07T18:55:21;4.10;;;1.35;;
44694;SDS011;32845;59.422;17.930;2023-05-07T18:59:52;7.00;;;1.27;;
44694;SDS011;32845;59.422;17.930;2023-05-07T19:04:23;8.35;;;1.50;;
44694;SDS011;32845;59.422;17.930;2023-05-07T19:08:54;3.38;;;1.98;;
44694;SDS011;32845;59.422;17.930;2023-05-07T19:13:24;6.68;;;1.75;;
44694;SDS011;32845;59.422;17.930;2023-05-07T19:17:56;3.70;;;1.58;;
44694;SDS011;32845;59.422;17.930;2023-05-07T19:22:26;2.38;;;1.20;;
44694;SDS011;32845;59.422;17.930;2023-05-07T19:26:57;10.15;;;1.42;;
44694;SDS011;32845;59.422;17.930;2023-05-07T19:31:28;11.05;;;1.33;;
44694;SDS011;32845;59.422;17.930;2023-05-07T19:35:59;3.30;;;1.10;;
44694;SDS011;32845;59.422;17.930;2023-05-07T19:40:30;1.88;;;1.08;;
44694;SDS011;32845;59.422;17.930;2023-05-07T19:45:02;9.82;;;1.70;;
44694;SDS011;32845;59.422;17.930;2023-05-07T19:49:34;3.65;;;1.30;;
44694;SDS011;32845;59.422;17.930;2023-05-07T19:54:04;2.55;;;1.50;;
44694;SDS011;32845;59.422;17.930;2023-05-07T19:58:35;5.28;;;1.50;;
44694;SDS011;32845;59.422;17.930;2023-05-07T20:03:06;4.22;;;1.65;;
44694;SDS011;32845;59.422;17.930;2023-05-07T20:07:37;5.38;;;1.13;;
44694;SDS011;32845;59.422;17.930;2023-05-07T20:12:08;7.05;;;1.58;;
44694;SDS011;32845;59.422;17.930;2023-05-07T20:16:39;5.45;;;1.48;;
44694;SDS011;32845;59.422;17.930;2023-05-07T20:21:10;7.30;;;1.20;;
44694;SDS011;32845;59.422;17.930;2023-05-07T20:25:40;4.13;;;1.23;;
44694;SDS011;32845;59.422;17.930;2023-05-07T20:30:12;5.82;;;1.30;;
44694;SDS011;32845;59.422;17.930;2023-05-07T20:34:43;5.57;;;1.42;;
44694;SDS011;32845;59.422;17.930;2023-05-07T20:39:15;4.57;;;1.02;;
44694;SDS011;32845;59.422;17.930;2023-05-07T20:43:46;5.93;;;1.20;;
44694;SDS011;32845;59.422;17.930;2023-05-07T20:48:17;10.15;;;1.17;;
44694;SDS011;32845;59.422;17.930;2023-05-07T20:52:48;4.47;;;1.48;;
44694;SDS011;32845;59.422;17.930;2023-05-07T20:57:18;7.13;;;1.02;;
44694;SDS011;32845;59.422;17.930;2023-05-07T21:01:49;4.60;;;1.10;;
44694;SDS011;32845;59.422;17.930;2023-05-07T21:06:20;3.53;;;1.20;;
44694;SDS011;32845;59.422;17.930;2023-05-07T21:10:51;1.25;;;0.95;;
44694;SDS011;32845;59.422;17.930;2023-05-07T21:15:22;3.85;;;1.23;;
44694;SDS011;32845;59.422;17.930;2023-05-07T21:19:53;5.68;;;1.30;;
44694;SDS011;32845;59.422;17.930;2023-05-07T21:24:24;1.77;;;1.15;;
44694;SDS011;32845;59.422;17.930;2023-05-07T21:28:54;8.35;;;1.27;;
44694;SDS011;32845;59.422;17.930;2023-05-07T21:33:25;2.60;;;1.42;;
44694;SDS011;32845;59.422;17.930;2023-05-07T21:37:56;5.50;;;1.50;;
44694;SDS011;32845;59.422;17.930;2023-05-07T21:42:26;3.67;;;1.30;;
44694;SDS011;32845;59.422;17.930;2023-05-07T21:46:57;5.10;;;2.17;;
44694;SDS011;32845;59.422;17.930;2023-05-07T21:51:38;5.97;;;1.52;;
44694;SDS011;32845;59.422;17.930;2023-05-07T21:56:09;7.05;;;1.58;;
44694;SDS011;32845;59.422;17.930;2023-05-07T22:00:39;5.22;;;1.40;;
44694;SDS011;32845;59.422;17.930;2023-05-07T22:05:10;10.45;;;1.20;;
44694;SDS011;32845;59.422;17.930;2023-05-07T22:09:41;2.67;;;1.35;;
44694;SDS011;32845;59.422;17.930;2023-05-07T22:14:11;2.47;;;0.95;;
44694;SDS011;32845;59.422;17.930;2023-05-07T22:18:42;8.48;;;1.40;;
44694;SDS011;32845;59.422;17.930;2023-05-07T22:23:12;3.42;;;1.08;;
44694;SDS011;32845;59.422;17.930;2023-05-07T22:27:43;3.08;;;1.25;;
44694;SDS011;32845;59.422;17.930;2023-05-07T22:32:14;2.97;;;1.10;;
44694;SDS011;32845;59.422;17.930;2023-05-07T22:36:44;4.75;;;1.27;;
44694;SDS011;32845;59.422;17.930;2023-05-07T22:41:15;4.32;;;0.82;;
44694;SDS011;32845;59.422;17.930;2023-05-07T22:45:46;7.35;;;1.30;;
44694;SDS011;32845;59.422;17.930;2023-05-07T22:50:17;4.47;;;1.58;;
44694;SDS011;32845;59.422;17.930;2023-05-07T22:54:47;7.45;;;1.23;;
44694;SDS011;32845;59.422;17.930;2023-05-07T22:59:18;3.47;;;1.30;;
44694;SDS011;32845;59.422;17.930;2023-05-07T23:03:49;6.82;;;1.10;;
44694;SDS011;32845;59.422;17.930;2023-05-07T23:08:19;2.70;;;1.20;;
44694;SDS011;32845;59.422;17.930;2023-05-07T23:12:50;3.53;;;1.52;;
44694;SDS011;32845;59.422;17.930;2023-05-07T23:17:21;4.65;;;1.27;;
44694;SDS011;32845;59.422;17.930;2023-05-07T23:21:52;2.65;;;1.27;;
44694;SDS011;32845;59.422;17.930;2023-05-07T23:26:25;4.38;;;1.50;;
44694;SDS011;32845;59.422;17.930;2023-05-07T23:30:57;3.42;;;1.20;;
44694;SDS011;32845;59.422;17.930;2023-05-07T23:35:27;2.05;;;1.17;;
44694;SDS011;32845;59.422;17.930;2023-05-07T23:39:58;3.67;;;1.20;;
44694;SDS011;32845;59.422;17.930;2023-05-07T23:44:29;2.80;;;1.27;;
44694;SDS011;32845;59.422;17.930;2023-05-07T23:48:59;1.90;;;0.98;;
44694;SDS011;32845;59.422;17.930;2023-05-07T23:53:30;6.30;;;1.33;;
44694;SDS011;32845;59.422;17.930;2023-05-07T23:58:01;5.32;;;1.30;;
